createdAt,value
2023-07-11T00:00:54.615Z,98901.50
2023-07-11T00:03:21.584Z,98895.16
2023-07-11T00:06:02.441Z,98898.25
2023-07-11T00:08:29.119Z,98893.50
2023-07-11T00:10:55.936Z,98897.72
2023-07-11T00:13:22.772Z,98897.56
2023-07-11T00:16:02.708Z,98895.06
2023-07-11T00:18:30.251Z,98896.19
2023-07-11T00:20:57.171Z,98898.03
2023-07-11T00:23:24.622Z,98895.47
2023-07-11T00:25:51.562Z,98893.38
2023-07-11T00:28:18.235Z,98891.13
2023-07-11T00:30:45.692Z,98885.94
2023-07-11T00:33:12.673Z,98888.31
2023-07-11T00:35:40.789Z,98889.47
2023-07-11T00:38:07.706Z,98886.22
2023-07-11T00:40:40.649Z,98894.34
2023-07-11T00:43:11.216Z,98885.38
2023-07-11T00:46:01.699Z,98884.97
2023-07-11T00:48:29.271Z,98868.28
2023-07-11T00:50:57.903Z,98871.94
2023-07-11T00:53:26.956Z,98872.34
2023-07-11T00:55:55.836Z,98869.13
2023-07-11T00:58:26.108Z,98870.25
2023-07-11T01:00:53.977Z,98865.47
2023-07-11T01:03:23.316Z,98874.72
2023-07-11T01:05:50.166Z,98865.63
2023-07-11T01:08:17.137Z,98872.66
2023-07-11T01:10:43.834Z,98863.09
2023-07-11T01:13:11.172Z,98865.75
2023-07-11T01:15:37.737Z,98861.13
2023-07-11T01:18:04.630Z,98859.59
2023-07-11T01:20:31.358Z,98853.00
2023-07-11T01:22:58.413Z,98850.75
2023-07-11T01:25:25.151Z,98853.41
2023-07-11T01:27:51.890Z,98846.13
2023-07-11T01:30:22.089Z,98843.59
2023-07-11T01:32:49.461Z,98847.38
2023-07-11T01:35:16.820Z,98843.75
2023-07-11T01:37:43.483Z,98846.78
2023-07-11T01:40:10.500Z,98835.84
2023-07-11T01:42:37.881Z,98839.66
2023-07-11T01:45:04.992Z,98829.00
2023-07-11T01:47:32.102Z,98826.59
2023-07-11T01:49:58.804Z,98821.72
2023-07-11T01:52:25.464Z,98826.59
2023-07-11T01:54:52.468Z,98824.78
2023-07-11T01:57:22.175Z,98820.72
2023-07-11T01:59:48.915Z,98820.97
2023-07-11T02:02:15.544Z,98814.50
2023-07-11T02:04:42.389Z,98817.97
2023-07-11T02:07:09.101Z,98809.31
2023-07-11T02:09:36.409Z,98808.31
2023-07-11T02:12:03.782Z,98797.53
2023-07-11T02:14:30.655Z,98794.03
2023-07-11T02:16:57.561Z,98797.22
2023-07-11T02:19:25.529Z,98792.19
2023-07-11T02:21:52.197Z,98801.53
2023-07-11T02:24:19.915Z,98798.44
2023-07-11T02:26:49.923Z,98803.50
2023-07-11T02:29:17.152Z,98794.34
2023-07-11T02:31:44.170Z,98794.94
2023-07-11T02:34:11.110Z,98785.72
2023-07-11T02:36:38.077Z,98783.06
2023-07-11T02:39:06.651Z,98785.72
2023-07-11T02:41:33.481Z,98787.94
2023-07-11T02:44:00.547Z,98792.44
2023-07-11T02:46:27.620Z,98783.47
2023-07-11T02:48:55.740Z,98784.47
2023-07-11T02:51:23.363Z,98783.03
2023-07-11T02:53:50.140Z,98784.69
2023-07-11T02:56:20.185Z,98783.28
2023-07-11T02:58:52.623Z,98785.84
2023-07-11T03:01:19.348Z,98784.13
2023-07-11T03:03:46.336Z,98783.38
2023-07-11T03:06:13.044Z,98775.16
2023-07-11T03:08:39.688Z,98779.78
2023-07-11T03:11:06.383Z,98777.50
2023-07-11T03:13:33.047Z,98777.91
2023-07-11T03:16:05.082Z,98771.03
2023-07-11T03:18:33.047Z,98772.16
2023-07-11T03:21:02.243Z,98766.19
2023-07-11T03:23:30.258Z,98765.41
2023-07-11T03:25:57.079Z,98762.63
2023-07-11T03:28:24.026Z,98759.00
2023-07-11T03:30:52.681Z,98759.84
2023-07-11T03:33:19.547Z,98760.09
2023-07-11T03:35:51.880Z,98766.38
2023-07-11T03:38:19.512Z,98757.22
2023-07-11T03:40:46.568Z,98761.41
2023-07-11T03:43:13.540Z,98762.34
2023-07-11T03:45:50.618Z,98760.00
2023-07-11T03:48:20.526Z,98760.28
2023-07-11T03:50:47.198Z,98756.22
2023-07-11T03:53:14.989Z,98764.19
2023-07-11T03:55:44.972Z,98763.63
2023-07-11T03:58:11.831Z,98768.41
2023-07-11T04:00:38.555Z,98754.97
2023-07-11T04:03:05.462Z,98761.53
2023-07-11T04:05:32.160Z,98758.59
2023-07-11T04:07:58.941Z,98757.72
2023-07-11T04:10:26.044Z,98751.28
2023-07-11T04:12:52.646Z,98749.59
2023-07-11T04:15:19.379Z,98755.50
2023-07-11T04:17:46.139Z,98749.81
2023-07-11T04:20:13.464Z,98750.63
2023-07-11T04:22:40.184Z,98751.22
2023-07-11T04:25:07.237Z,98746.03
2023-07-11T04:27:33.977Z,98742.13
2023-07-11T04:30:00.713Z,98740.44
2023-07-11T04:32:27.397Z,98741.88
2023-07-11T04:34:54.114Z,98739.06
2023-07-11T04:37:20.769Z,98737.28
2023-07-11T04:39:47.374Z,98741.50
2023-07-11T04:42:14.016Z,98739.06
2023-07-11T04:44:40.690Z,98737.16
2023-07-11T04:47:07.980Z,98734.03
2023-07-11T04:49:34.837Z,98736.75
2023-07-11T04:52:01.560Z,98739.16
2023-07-11T04:54:28.189Z,98741.81
2023-07-11T04:57:04.442Z,98742.25
2023-07-11T04:59:31.094Z,98744.25
2023-07-11T05:01:57.780Z,98743.44
2023-07-11T05:04:24.443Z,98733.09
2023-07-11T05:06:51.386Z,98726.69
2023-07-11T05:09:21.174Z,98728.38
2023-07-11T05:11:49.273Z,98720.25
2023-07-11T05:14:16.120Z,98719.41
2023-07-11T05:16:42.915Z,98720.94
2023-07-11T05:19:09.617Z,98720.25
2023-07-11T05:21:36.306Z,98718.88
2023-07-11T05:24:03.350Z,98720.84
2023-07-11T05:26:30.816Z,98712.88
2023-07-11T05:29:00.298Z,98706.88
2023-07-11T05:31:27.083Z,98705.88
2023-07-11T05:33:54.569Z,98705.75
2023-07-11T05:36:35.518Z,98702.13
2023-07-11T05:39:12.535Z,98699.03
2023-07-11T05:41:45.409Z,98704.22
2023-07-11T05:44:13.658Z,98693.13
2023-07-11T05:46:41.211Z,98689.28
2023-07-11T05:49:08.955Z,98685.31
2023-07-11T05:51:36.240Z,98683.81
2023-07-11T05:54:03.545Z,98675.22
2023-07-11T05:56:30.295Z,98680.38
2023-07-11T05:58:58.170Z,98676.03
2023-07-11T06:01:29.030Z,98671.31
2023-07-11T06:04:13.536Z,98682.16
2023-07-11T06:06:44.522Z,98674.00
2023-07-11T06:09:20.229Z,98668.53
2023-07-11T06:11:49.165Z,98665.69
2023-07-11T06:14:18.210Z,98658.13
2023-07-11T06:16:47.180Z,98653.03
2023-07-11T06:19:17.679Z,98652.09
2023-07-11T06:21:47.321Z,98650.06
2023-07-11T06:24:13.979Z,98655.78
2023-07-11T06:26:40.776Z,98653.34
2023-07-11T06:29:07.442Z,98654.88
2023-07-11T06:31:36.282Z,98652.22
2023-07-11T06:34:02.995Z,98644.38
2023-07-11T06:36:29.628Z,98645.03
2023-07-11T06:38:56.513Z,98653.88
2023-07-11T06:41:23.647Z,98643.28
2023-07-11T06:43:52.512Z,98647.59
2023-07-11T06:46:19.770Z,98648.03
2023-07-11T06:48:46.658Z,98634.38
2023-07-11T06:51:13.428Z,98636.09
2023-07-11T06:53:40.072Z,98635.13
2023-07-11T06:56:06.802Z,98634.63
2023-07-11T06:58:33.923Z,98635.91
2023-07-11T07:01:13.295Z,98629.84
2023-07-11T07:03:43.256Z,98634.78
2023-07-11T07:06:12.696Z,98633.47
2023-07-11T07:08:39.656Z,98623.44
2023-07-11T07:11:08.462Z,98620.25
2023-07-11T07:13:35.476Z,98617.25
2023-07-11T07:16:03.511Z,98619.44
2023-07-11T07:18:36.711Z,98615.81
2023-07-11T07:21:04.567Z,98619.53
2023-07-11T07:23:32.691Z,98611.78
2023-07-11T07:26:01.032Z,98609.94
2023-07-11T07:28:29.881Z,98611.16
2023-07-11T07:30:58.606Z,98610.06
2023-07-11T07:33:27.354Z,98606.97
2023-07-11T07:36:02.029Z,98599.13
2023-07-11T07:38:31.618Z,98589.16
2023-07-11T07:41:02.281Z,98594.84
2023-07-11T07:43:29.479Z,98596.13
2023-07-11T07:45:58.528Z,98591.31
2023-07-11T07:48:28.407Z,98584.00
2023-07-11T07:51:05.609Z,98584.91
2023-07-11T07:53:33.852Z,98578.53
2023-07-11T07:56:07.942Z,98574.97
2023-07-11T08:01:05.885Z,98566.16
2023-07-11T08:03:38.561Z,98566.63
2023-07-11T08:08:35.768Z,98572.84
2023-07-11T08:11:04.776Z,98563.28
2023-07-11T08:13:38.583Z,98569.50
2023-07-11T08:16:29.454Z,98560.59
2023-07-11T08:18:58.189Z,98559.31
2023-07-11T08:21:25.297Z,98562.34
2023-07-11T08:23:53.096Z,98554.25
2023-07-11T08:26:20.822Z,98557.00
2023-07-11T08:28:47.503Z,98551.75
2023-07-11T08:31:15.010Z,98549.63
2023-07-11T08:33:41.647Z,98552.34
2023-07-11T08:36:08.832Z,98548.63
2023-07-11T08:38:35.498Z,98540.47
2023-07-11T08:41:39.769Z,98539.94
2023-07-11T08:44:15.760Z,98536.41
2023-07-11T08:46:52.426Z,98531.19
2023-07-11T08:49:27.069Z,98529.91
2023-07-11T08:51:57.354Z,98523.88
2023-07-11T08:54:31.429Z,98527.13
2023-07-11T08:57:00.471Z,98528.53
2023-07-11T08:59:56.330Z,98520.09
2023-07-11T09:02:33.422Z,98525.75
2023-07-11T09:05:02.051Z,98513.81
2023-07-11T09:07:43.348Z,98521.94
2023-07-11T09:10:51.569Z,98518.53
2023-07-11T09:13:30.502Z,98518.53
2023-07-11T09:16:09.577Z,98513.06
2023-07-11T09:18:51.765Z,98507.81
2023-07-11T09:21:31.615Z,98501.19
2023-07-11T09:24:12.566Z,98503.19
2023-07-11T09:26:51.076Z,98489.66
2023-07-11T09:29:19.191Z,98498.41
2023-07-11T09:31:51.566Z,98496.63
2023-07-11T09:34:38.143Z,98486.56
2023-07-11T09:37:29.719Z,98482.28
2023-07-11T09:40:24.507Z,98483.81
2023-07-11T09:42:58.950Z,98477.53
2023-07-11T09:45:38.316Z,98480.88
2023-07-11T09:48:12.698Z,98480.28
2023-07-11T09:50:49.017Z,98475.16
2023-07-11T09:53:30.246Z,98472.78
2023-07-11T09:56:12.380Z,98477.00
2023-07-11T09:58:40.926Z,98468.25
2023-07-11T10:01:16.226Z,98475.53
2023-07-11T10:03:48.416Z,98476.75
2023-07-11T10:06:48.132Z,98472.78
2023-07-11T10:09:22.125Z,98471.75
2023-07-11T10:11:56.668Z,98462.94
2023-07-11T10:14:41.290Z,98463.56
2023-07-11T10:17:42.259Z,98470.50
2023-07-11T10:20:19.743Z,98467.91
2023-07-11T10:22:57.397Z,98458.50
2023-07-11T10:25:29.608Z,98457.41
2023-07-11T10:28:30.526Z,98449.97
2023-07-11T10:30:59.622Z,98454.97
2023-07-11T10:33:48.959Z,98440.47
2023-07-11T10:36:28.288Z,98440.38
2023-07-11T10:39:00.412Z,98442.63
2023-07-11T10:41:54.797Z,98433.06
2023-07-11T10:44:35.761Z,98437.44
2023-07-11T10:47:05.566Z,98411.66
2023-07-11T10:49:49.144Z,98426.44
2023-07-11T10:52:23.238Z,98420.16
2023-07-11T10:55:07.229Z,98423.16
2023-07-11T10:57:51.440Z,98421.81
2023-07-11T11:00:45.960Z,98420.44
2023-07-11T11:03:36.939Z,98406.19
2023-07-11T11:06:46.470Z,98411.88
2023-07-11T11:09:37.146Z,98400.69
2023-07-11T11:12:16.651Z,98405.03
2023-07-11T11:15:17.273Z,98398.53
2023-07-11T11:17:47.018Z,98404.25
2023-07-11T11:20:25.359Z,98393.88
2023-07-11T11:23:07.201Z,98401.22
2023-07-11T11:26:22.569Z,98392.22
2023-07-11T11:29:16.727Z,98386.69
2023-07-11T11:32:02.123Z,98381.81
2023-07-11T11:35:14.492Z,98382.09
2023-07-11T11:38:10.142Z,98380.66
2023-07-11T11:40:44.363Z,98371.66
2023-07-11T11:43:20.477Z,98371.38
2023-07-11T11:50:58.216Z,98352.63
2023-07-11T11:53:49.963Z,98351.06
2023-07-11T11:56:24.114Z,98340.34
2023-07-11T11:58:59.957Z,98340.66
2023-07-11T12:01:34.516Z,98330.19
2023-07-11T12:04:01.346Z,98332.28
2023-07-11T12:06:44.631Z,98332.72
2023-07-11T12:09:17.019Z,98341.25
2023-07-11T12:12:09.206Z,98319.91
2023-07-11T12:14:59.291Z,98310.47
2023-07-11T12:17:35.178Z,98315.38
2023-07-11T12:20:02.727Z,98302.78
2023-07-11T12:22:38.678Z,98301.81
2023-07-11T12:25:08.468Z,98300.78
2023-07-11T12:27:35.107Z,98292.03
2023-07-11T12:30:41.979Z,98282.34
2023-07-11T12:33:34.748Z,98271.56
2023-07-11T12:36:11.701Z,98262.31
2023-07-11T12:39:04.436Z,98277.16
2023-07-11T12:42:04.486Z,98278.34
2023-07-11T12:44:34.532Z,98270.13
2023-07-11T12:47:04.427Z,98261.66
2023-07-11T12:49:31.877Z,98263.06
2023-07-11T12:52:17.682Z,98256.47
2023-07-11T12:54:45.315Z,98255.88
2023-07-11T12:57:28.524Z,98252.84
2023-07-11T12:59:55.219Z,98247.94
2023-07-11T13:02:28.856Z,98246.38
2023-07-11T13:04:59.080Z,98242.84
2023-07-11T13:07:32.307Z,98227.72
2023-07-11T13:10:02.034Z,98224.41
2023-07-11T13:12:35.691Z,98234.03
2023-07-11T13:15:13.598Z,98217.28
2023-07-11T13:17:42.079Z,98228.50
2023-07-11T13:20:24.934Z,98230.06
2023-07-11T13:22:53.039Z,98226.28
2023-07-11T13:25:28.391Z,98223.75
2023-07-11T13:27:57.544Z,98220.47
2023-07-11T13:30:27.958Z,98216.00
2023-07-11T13:32:57.932Z,98212.47
2023-07-11T13:35:35.632Z,98213.47
2023-07-11T13:38:03.621Z,98204.03
2023-07-11T13:40:41.717Z,98202.59
2023-07-11T13:43:21.517Z,98195.06
2023-07-11T13:45:51.521Z,98201.63
2023-07-11T13:48:30.001Z,98195.19
2023-07-11T13:51:17.634Z,98198.25
2023-07-11T13:53:50.541Z,98193.44
2023-07-11T13:56:18.001Z,98172.47
2023-07-11T13:58:47.307Z,98174.25
2023-07-11T14:01:20.328Z,98178.69
2023-07-11T14:03:48.127Z,98187.84
2023-07-11T14:06:16.724Z,98178.16
2023-07-11T14:08:44.434Z,98181.69
2023-07-11T14:11:17.133Z,98184.16
2023-07-11T14:13:43.797Z,98187.44
2023-07-11T14:16:14.444Z,98184.44
2023-07-11T14:18:41.092Z,98190.03
2023-07-11T14:21:15.487Z,98179.50
2023-07-11T14:23:42.107Z,98172.25
2023-07-11T14:26:09.270Z,98173.00
2023-07-11T14:28:36.393Z,98189.13
2023-07-11T14:31:16.368Z,98170.38
2023-07-11T14:33:43.876Z,98170.94
2023-07-11T14:36:10.501Z,98161.88
2023-07-11T14:38:37.288Z,98164.38
2023-07-11T14:41:06.829Z,98159.56
2023-07-11T14:43:35.032Z,98165.41
2023-07-11T14:46:01.765Z,98172.16
2023-07-11T14:48:29.785Z,98166.53
2023-07-11T14:53:52.950Z,98152.78
2023-07-11T14:58:57.805Z,98153.13
2023-07-11T15:01:25.976Z,98156.97
2023-07-11T15:11:33.847Z,98173.88
2023-07-11T15:16:30.550Z,98189.97
2023-07-11T15:18:57.279Z,98188.34
2023-07-11T15:21:23.966Z,98183.69
2023-07-11T15:23:50.599Z,98181.31
2023-07-11T15:26:21.904Z,98166.09
2023-07-11T15:28:49.375Z,98163.16
2023-07-11T15:31:20.861Z,98170.94
2023-07-11T15:33:17.879Z,98158.53
2023-07-11T15:33:48.030Z,98181.31
2023-07-11T15:36:15.620Z,98189.81
2023-07-11T15:38:42.384Z,98204.28
2023-07-11T15:41:16.029Z,98244.41
2023-07-11T15:43:44.406Z,98263.56
2023-07-11T15:46:20.204Z,98219.28
2023-07-11T15:48:49.003Z,98182.88
2023-07-11T15:51:18.116Z,98128.72
2023-07-11T15:53:44.988Z,98140.94
2023-07-11T15:56:18.733Z,98170.25
2023-07-11T15:58:45.362Z,98117.44
2023-07-11T16:01:12.666Z,98033.34
2023-07-11T16:03:39.346Z,98050.13
2023-07-11T16:06:14.946Z,98085.75
2023-07-11T16:08:42.074Z,98088.88
2023-07-11T16:11:11.304Z,98087.47
2023-07-11T16:13:38.874Z,98096.00
2023-07-11T16:16:14.941Z,98105.84
2023-07-11T16:18:41.782Z,98101.13
2023-07-11T16:21:15.098Z,98121.78
2023-07-11T16:23:41.722Z,98141.47
2023-07-11T16:26:19.058Z,98146.69
2023-07-11T16:28:45.794Z,98139.00
2023-07-11T16:31:12.932Z,98109.91
2023-07-11T16:33:39.911Z,98064.94
2023-07-11T16:36:11.278Z,98039.16
2023-07-11T16:38:41.159Z,98041.06
2023-07-11T16:41:08.597Z,98050.47
2023-07-11T16:43:35.709Z,98048.59
2023-07-11T16:46:02.455Z,98028.47
2023-07-11T16:48:31.413Z,98030.31
2023-07-11T16:51:02.025Z,98028.56
2023-07-11T16:53:33.045Z,98030.16
2023-07-11T16:56:00.363Z,98027.38
2023-07-11T16:58:38.068Z,98035.16
2023-07-11T17:01:05.298Z,98051.28
2023-07-11T17:03:32.192Z,98008.38
2023-07-11T17:05:58.996Z,97996.78
2023-07-11T17:08:29.997Z,97998.44
2023-07-11T17:10:56.838Z,98015.50
2023-07-11T17:13:29.327Z,98034.34
2023-07-11T17:15:57.398Z,98085.31
2023-07-11T17:18:25.209Z,98108.97
2023-07-11T17:20:57.597Z,98086.44
2023-07-11T17:23:25.812Z,98081.75
2023-07-11T17:25:53.279Z,98088.22
2023-07-11T17:28:28.057Z,98057.88
2023-07-11T17:30:55.315Z,98033.78
2023-07-11T17:33:25.020Z,98028.72
2023-07-11T17:35:51.925Z,98022.75
2023-07-11T17:38:23.126Z,97996.63
2023-07-11T17:40:50.578Z,97980.94
2023-07-11T17:43:24.988Z,97968.09
2023-07-11T17:48:28.375Z,97977.78
2023-07-11T17:50:57.762Z,97959.59
2023-07-11T17:53:25.119Z,97953.53
2023-07-11T17:55:52.166Z,97944.63
2023-07-11T17:58:25.303Z,97938.19
2023-07-11T18:00:55.090Z,97938.44
2023-07-11T18:03:22.626Z,97934.19
2023-07-11T18:05:49.948Z,97936.06
2023-07-11T18:08:18.963Z,97924.28
2023-07-11T18:10:47.183Z,97933.63
2023-07-11T18:13:14.117Z,97954.94
2023-07-11T18:15:44.270Z,97962.75
2023-07-11T18:18:19.994Z,97950.75
2023-07-11T18:20:46.641Z,97945.34
2023-07-11T18:23:13.278Z,97960.53
2023-07-11T18:25:40.670Z,97970.53
2023-07-11T18:28:18.694Z,97971.56
2023-07-11T18:30:46.433Z,97953.59
2023-07-11T18:33:13.605Z,97923.28
2023-07-11T18:35:41.301Z,97921.50
2023-07-11T18:38:18.932Z,97909.28
2023-07-11T18:40:46.571Z,97914.75
2023-07-11T18:43:14.205Z,97914.94
2023-07-11T18:45:43.312Z,97916.06
2023-07-11T18:48:12.304Z,97922.19
2023-07-11T18:50:40.044Z,97919.19
2023-07-11T18:53:08.858Z,97905.81
2023-07-11T18:55:36.233Z,97908.28
2023-07-11T18:58:05.269Z,97922.63
2023-07-11T19:00:38.749Z,97933.00
2023-07-11T19:03:11.749Z,97912.78
2023-07-11T19:05:40.098Z,97921.06
2023-07-11T19:08:21.662Z,97937.66
2023-07-11T19:10:49.529Z,97951.72
2023-07-11T19:13:19.793Z,97978.25
2023-07-11T19:15:50.118Z,97996.47
2023-07-11T19:18:22.854Z,98022.75
2023-07-11T19:20:53.942Z,97986.94
2023-07-11T19:23:22.698Z,97965.59
2023-07-11T19:25:50.865Z,97979.06
2023-07-11T19:28:20.774Z,97995.63
2023-07-11T19:30:50.493Z,97984.88
2023-07-11T19:33:18.548Z,97960.22
2023-07-11T19:35:50.525Z,97960.00
2023-07-11T19:38:25.552Z,97971.41
2023-07-11T19:40:52.893Z,97979.66
2023-07-11T19:43:20.214Z,97982.91
2023-07-11T19:45:56.758Z,97987.06
2023-07-11T19:48:28.446Z,97994.53
2023-07-11T19:50:58.328Z,97990.25
2023-07-11T19:53:34.905Z,97987.56
2023-07-11T19:56:18.681Z,98002.03
2023-07-11T19:58:46.232Z,97994.38
2023-07-11T20:01:12.864Z,97988.19
2023-07-11T20:03:39.602Z,97983.84
2023-07-11T20:06:16.460Z,97992.28
2023-07-11T20:08:44.113Z,97993.13
2023-07-11T20:11:11.189Z,98004.09
2023-07-11T20:13:37.926Z,98005.34
2023-07-11T20:16:23.680Z,98009.59
2023-07-11T20:18:50.790Z,98043.50
2023-07-11T20:21:21.714Z,98100.28
2023-07-11T20:23:51.432Z,98105.63
2023-07-11T20:26:24.738Z,98099.66
2023-07-11T20:28:52.363Z,98079.00
2023-07-11T20:31:19.049Z,98047.72
2023-07-11T20:33:45.657Z,98049.38
2023-07-11T20:36:19.920Z,98043.16
2023-07-11T20:38:46.513Z,98026.88
2023-07-11T20:41:14.490Z,98010.22
2023-07-11T20:43:44.992Z,98010.53
2023-07-11T20:46:22.884Z,98026.38
2023-07-11T20:48:50.786Z,98055.84
2023-07-11T20:51:19.296Z,98053.59
2023-07-11T20:53:46.396Z,98055.47
2023-07-11T20:56:22.669Z,98042.06
2023-07-11T20:58:51.816Z,98049.75
2023-07-11T21:01:21.037Z,98064.00
2023-07-11T21:03:48.650Z,98054.69
2023-07-11T21:06:21.915Z,98051.78
2023-07-11T21:08:48.763Z,98040.28
2023-07-11T21:11:15.554Z,98043.19
2023-07-11T21:13:43.785Z,98069.88
2023-07-11T21:16:15.208Z,98095.81
2023-07-11T21:18:41.986Z,98114.31
2023-07-11T21:21:10.958Z,98181.94
2023-07-11T21:23:37.870Z,98238.44
2023-07-11T21:26:14.446Z,98231.94
2023-07-11T21:28:41.914Z,98122.69
2023-07-11T21:31:11.745Z,98112.34
2023-07-11T21:33:39.735Z,98137.47
2023-07-11T21:36:15.245Z,98143.50
2023-07-11T21:38:41.827Z,98133.50
2023-07-11T21:41:13.232Z,98129.72
2023-07-11T21:43:40.023Z,98116.50
2023-07-11T21:46:20.716Z,98140.81
2023-07-11T21:49:46.255Z,98137.94
2023-07-11T21:52:12.915Z,98126.31
2023-07-11T21:54:39.548Z,98141.44
2023-07-11T21:57:09.843Z,98146.38
2023-07-11T21:59:36.484Z,98154.47
2023-07-11T22:02:03.165Z,98137.34
2023-07-11T22:04:29.888Z,98138.00
2023-07-11T22:06:56.937Z,98135.28
2023-07-11T22:09:24.256Z,98130.19
2023-07-11T22:11:50.938Z,98133.06
2023-07-11T22:14:19.266Z,98141.91
2023-07-11T22:16:48.606Z,98134.53
2023-07-11T22:19:23.487Z,98136.09
2023-07-11T22:21:53.786Z,98145.34
2023-07-11T22:24:23.891Z,98158.56
2023-07-11T22:26:50.541Z,98156.06
2023-07-11T22:29:17.162Z,98161.44
2023-07-11T22:31:43.846Z,98159.78
2023-07-11T22:34:10.430Z,98151.31
2023-07-11T22:36:37.268Z,98161.84
2023-07-11T22:39:03.838Z,98163.88
2023-07-11T22:41:30.492Z,98152.53
2023-07-11T22:43:57.106Z,98160.56
2023-07-11T22:46:24.570Z,98161.28
2023-07-11T22:48:51.420Z,98160.91
2023-07-11T22:54:07.125Z,98154.34
2023-07-11T22:56:33.759Z,98152.00
2023-07-11T22:59:00.439Z,98169.41
2023-07-11T23:01:27.071Z,98174.56
2023-07-11T23:04:09.466Z,98158.69
2023-07-11T23:06:38.891Z,98147.97
2023-07-11T23:09:05.533Z,98142.03
2023-07-11T23:15:07.181Z,98137.50
2023-07-11T23:17:36.838Z,98135.00
2023-07-11T23:20:16.314Z,98131.22
2023-07-11T23:22:42.983Z,98124.38
2023-07-11T23:28:39.769Z,98138.75
2023-07-11T23:31:06.649Z,98131.94
2023-07-11T23:33:33.612Z,98145.03
2023-07-11T23:36:03.742Z,98137.72
2023-07-11T23:38:30.429Z,98127.00
2023-07-11T23:41:24.301Z,98116.84
2023-07-11T23:43:53.078Z,98125.25
2023-07-11T23:46:34.316Z,98116.91
2023-07-11T23:49:21.177Z,98101.84
2023-07-11T23:51:47.872Z,98107.56
2023-07-11T23:54:26.460Z,98118.81
2023-07-11T23:56:53.075Z,98129.19
2023-07-11T23:59:19.851Z,98143.72
